Latest Coastal Weather Observations for Smithton

IDV60701

Issued at 1:21 am EST Wednesday 20 September 2017 (issued every 10 minutes, with the page automatically refreshed every 10 minutes)

About coastal observations | Map of coastal stations | Coastal observations for VIC | Marine services | Other Formats
Station Details ID: 091292 Name: SMITHTON AERODROME Lat: -40.83 Lon: 145.08 Height: 7.5 m
Data from the previous 72 hours. | See also: Recent months at Smithton
Date/Time
EST
Temp
°C
Wind Pressure Rain since
9am
mm
Weather Cloud Vis
km
Sea
Height
m
Swell
Dir  Spd
kts
Gust
kts
hPa Trend Height
m
Period
s
Dir
20/01:00am 4.9 SSW 4 6 1019.2 - 0.4 - - - - - - -
20/12:30am 3.9 SW 6 6 1019.4 - 0.4 - - - - - - -
20/12:00am 5.6 SW 4 6 1019.4 - 0.4 - - - - - - -
 
Date/Time
EST
Temp
°C
Wind Pressure Rain since
9am
mm
Weather Cloud Vis
km
Sea
Height
m
Swell
Dir  Spd
kts
Gust
kts
hPa Trend Height
m
Period
s
Dir
19/11:30pm 5.8 SW 6 7 1019.7 - 0.4 - - - - - - -
19/11:00pm 5.0 SW 6 6 1019.8 - 0.4 - - - - - - -
19/10:30pm 4.9 WNW 4 5 1020.1 - 0.4 - - - - - - -
19/10:00pm 5.4 W 6 7 1020.3 - 0.4 - - - - - - -
19/09:30pm 6.8 W 6 8 1020.2 - 0.4 - - - - - - -
19/09:00pm 5.7 W 7 7 1020.0 - 0.4 - - - - - - -
19/08:30pm 5.1 WSW 4 5 1019.7 - 0.4 - - - - - - -
19/08:00pm 6.1 WSW 7 8 1019.6 - 0.4 - - - - - - -
19/07:30pm 7.6 WSW 9 11 1019.5 - 0.4 - - - - - - -
19/07:00pm 7.2 WSW 8 10 1019.1 - 0.4 - - - - - - -
19/06:30pm 7.6 W 8 10 1018.9 - 0.4 - - - - - - -
19/06:00pm 7.9 WSW 10 13 1018.6 - 0.4 - - - - - - -
19/05:30pm 8.5 SW 11 15 1018.1 - 0.4 - - - - - - -
19/05:00pm 9.3 SW 17 22 1017.8 - 0.4 - - - - - - -
19/04:30pm 10.0 WSW 14 18 1017.2 - 0.4 - - - - - - -
19/04:00pm 9.5 WSW 18 28 1016.9 - 0.4 - - - - - - -
19/03:57pm 9.9 WSW 17 28 1016.9 - 0.4 - - - - - - -
19/03:30pm 10.1 WSW 12 16 1016.7 - 0.4 - - - - - - -
19/03:00pm 10.3 WSW 20 26 1016.5 - 0.4 - - - - - - -
19/02:30pm 10.7 SW 21 27 1016.2 - 0.4 - - - - - - -
19/02:18pm 11.7 SW 19 25 1016.1 - 0.4 - - - - - - -
19/02:05pm 12.6 W 22 32 1015.6 - 0.4 - - - - - - -
19/02:00pm 12.1 W 22 31 1015.5 - 0.4 - - - - - - -
19/01:55pm 12.0 W 23 30 1015.6 - 0.4 - - - - - - -
19/01:30pm 12.2 SW 22 30 1015.4 - 0.4 - - - - - - -
19/01:23pm 11.6 SW 19 30 1015.1 - 0.4 - - - - - - -
19/01:00pm 10.6 SW 21 27 1015.1 - 0.4 - - - - - - -
19/12:46pm 10.8 WSW 16 26 1015.0 - 0.4 - - - - - - -
19/12:30pm 10.0 WSW 19 25 1015.2 - 0.4 - - - - - - -
19/12:25pm 9.5 WSW 21 26 1015.2 - 0.4 - - - - - - -
19/12:09pm 8.4 SSW 22 32 1015.3 - 0.2 - - - - - - -
19/12:05pm 8.9 SSW 27 32 1015.2 - 0.2 - - - - - - -
19/12:04pm 9.8 WSW 20 32 1015.1 - 0.0 - - - - - - -
19/12:00pm 11.5 WSW 19 25 1014.9 - 0.0 - - - - - - -
19/11:46am 9.8 WSW 23 33 1014.9 - 0.0 - - - - - - -
19/11:30am 11.0 SW 19 28 1014.4 - 0.0 - - - - - - -
19/11:12am 11.6 WSW 16 26 1014.5 - 0.0 - - - - - - -
19/11:00am 11.1 WSW 15 18 1014.5 - 0.0 - - - - - - -
19/10:30am 8.5 WSW 22 34 1014.6 - 0.0 - - - - - - -
19/10:24am 9.9 WSW 20 33 1014.3 - 0.0 - - - - - - -
19/10:00am 11.1 WSW 24 31 1013.9 - 0.0 - - - - - - -
19/09:34am 10.6 WSW 16 27 1013.8 - 0.0 - - - - - - -
19/09:30am 10.2 WSW 15 24 1013.7 - 0.0 - - - - - - -
19/09:00am 9.3 SW 16 20 1013.6 - 3.6 - - - - - - -
19/08:36am 8.0 SW 19 29 1013.4 - 3.6 - - - - - - -
19/08:30am 8.4 SW 20 29 1013.2 - 3.6 - - - - - - -
19/08:00am 7.6 SW 20 34 1012.7 - 3.6 - - - - - - -
19/07:56am 8.7 SW 17 29 1012.4 - 3.6 - - - - - - -
19/07:30am 8.7 WSW 21 27 1011.9 - 3.6 - - - - - - -
19/07:00am 7.3 SW 13 17 1011.1 - 3.6 - - - - - - -
19/06:30am 7.4 SW 18 24 1010.4 - 3.6 - - - - - - -
19/06:00am 7.3 SW 19 25 1009.5 - 3.6 - - - - - - -
19/05:30am 7.1 SW 19 31 1008.7 - 3.6 - - - - - - -
19/05:28am 7.2 SW 21 31 1008.7 - 3.6 - - - - - - -
19/05:17am 7.5 SW 25 37 1008.4 - 3.6 - - - - - - -
19/05:06am 8.0 WSW 21 34 1008.1 - 3.2 - - - - - - -
19/05:00am 8.1 WSW 21 29 1007.9 - 3.2 - - - - - - -
19/04:30am 7.9 SW 21 32 1007.2 - 3.2 - - - - - - -
19/04:15am 7.9 WSW 21 36 1006.9 - 3.2 - - - - - - -
19/04:00am 8.2 WSW 21 29 1006.6 - 2.8 - - - - - - -
19/03:30am 8.2 WSW 22 33 1005.6 - 2.8 - - - - - - -
19/03:07am 8.2 WSW 23 33 1005.5 - 2.8 - - - - - - -
19/03:00am 8.3 WSW 23 31 1005.3 - 2.8 - - - - - - -
19/02:44am 8.8 WSW 21 31 1004.9 - 2.8 - - - - - - -
19/02:30am 8.7 WSW 24 33 1004.2 - 2.8 - - - - - - -
19/02:13am 8.9 WSW 29 39 1003.9 - 2.6 - - - - - - -
19/02:09am 9.2 WSW 31 39 1003.9 - 2.6 - - - - - - -
19/02:08am 9.2 WSW 19 38 1003.7 - 2.6 - - - - - - -
19/02:06am 9.2 WSW 17 28 1003.7 - 2.6 - - - - - - -
19/02:00am 9.4 W 17 23 1003.6 - 2.4 - - - - - - -
19/01:30am 9.7 W 17 24 1002.9 - 2.2 - - - - - - -
19/01:00am 10.1 W 16 21 1002.3 - 2.0 - - - - - - -
19/12:30am 10.1 WNW 14 19 1001.9 - 2.0 - - - - - - -
19/12:00am 10.5 NW 15 19 1001.7 - 2.0 - - - - - - -
 
Date/Time
EST
Temp
°C
Wind Pressure Rain since
9am
mm
Weather Cloud Vis
km
Sea
Height
m
Swell
Dir  Spd
kts
Gust
kts
hPa Trend Height
m
Period
s
Dir
18/11:30pm 10.2 NNW 19 25 1001.6 - 2.0 - - - - - - -
18/11:00pm 10.1 NNW 22 34 1002.3 - 1.6 - - - - - - -
18/10:48pm 10.4 NNW 28 38 1002.6 - 1.4 - - - - - - -
18/10:45pm 10.9 NNW 32 38 1002.6 - 1.4 - - - - - - -
18/10:44pm 11.3 NNW 20 38 1002.4 - 1.4 - - - - - - -
18/10:31pm 11.5 N 16 26 1002.9 - 1.4 - - - - - - -
18/10:30pm 11.5 N 17 26 1002.9 - 1.4 - - - - - - -
18/10:12pm 11.8 N 15 25 1003.3 - 1.4 - - - - - - -
18/10:00pm 11.7 NNW 14 21 1003.7 - 1.4 - - - - - - -
18/09:30pm 11.4 NNW 15 20 1004.3 - 1.4 - - - - - - -
18/09:00pm 11.4 NW 12 17 1005.0 - 1.4 - - - - - - -
18/08:30pm 11.5 NW 14 18 1005.0 - 1.4 - - - - - - -
18/08:05pm 12.1 NW 15 25 1005.2 - 1.4 - - - - - - -
18/08:00pm 12.1 NNW 14 20 1005.2 - 1.2 - - - - - - -
18/07:30pm 11.7 N 9 12 1005.0 - 1.2 - - - - - - -
18/07:00pm 11.7 N 9 13 1005.0 - 1.2 - - - - - - -
18/06:30pm 11.8 NNW 10 14 1005.1 - 1.0 - - - - - - -
18/06:00pm 11.9 N 11 14 1005.0 - 0.2 - - - - - - -
18/05:30pm 12.2 NNW 13 18 1005.2 - 0.2 - - - - - - -
18/05:00pm 13.0 NNW 15 21 1005.4 - 0.0 - - - - - - -
18/04:30pm 13.4 NNW 17 22 1005.4 - 0.0 - - - - - - -
18/04:07pm 13.7 NNW 16 27 1005.4 - 0.0 - - - - - - -
18/04:00pm 13.9 NNW 15 21 1005.5 - 0.0 - - - - - - -
18/03:00pm 13.7 NNW 10 15 1005.7 - 0.0 - - - - - - -
18/02:30pm 13.3 NNW 10 14 1005.7 - 0.0 - - - - - - -
18/02:00pm 12.8 NNW 12 15 1006.0 - 0.0 - - - - - - -
18/01:30pm 13.5 N 10 14 1006.2 - 0.0 - - - - - - -
18/01:00pm 12.7 NE 7 8 1006.6 - 0.0 - - - - - - -
18/12:30pm 13.0 NE 7 9 1006.9 - 0.0 - - - - - - -
18/12:00pm 12.6 ENE 9 11 1007.6 - 0.0 - - - - - - -
18/11:30am 12.8 ENE 10 13 1007.6 - 0.0 - - - - - - -
18/11:00am 12.7 ENE 10 12 1008.1 - 0.0 - - - - - - -
18/10:30am 12.7 ENE 9 11 1008.6 - 0.0 - - - - - - -
18/10:00am 12.8 ENE 10 14 1009.2 - 0.0 - - - - - - -
18/09:30am 13.2 NE 11 16 1009.6 - 0.0 - - - - - - -
18/09:00am 13.1 NNE 15 19 1009.8 - 0.0 - - - - - - -
18/08:30am 13.1 NNE 13 18 1010.1 - 0.0 - - - - - - -
18/08:00am 12.8 NE 12 17 1010.5 - 0.0 - - - - - - -
18/07:30am 12.7 NE 11 17 1010.9 - 0.0 - - - - - - -
18/07:00am 12.6 NE 12 15 1011.1 - 0.0 - - - - - - -
18/06:30am 12.1 NE 10 13 1011.4 - 0.0 - - - - - - -
18/06:00am 11.9 ENE 11 13 1011.4 - 0.0 - - - - - - -
18/05:30am 11.7 NE 12 15 1011.7 - 0.0 - - - - - - -
18/05:00am 11.4 ENE 10 13 1012.0 - 0.0 - - - - - - -
18/04:30am 11.3 ENE 11 15 1012.2 - 0.0 - - - - - - -
18/04:00am 11.4 ENE 11 15 1012.5 - 0.0 - - - - - - -
18/03:30am 11.6 ENE 12 17 1012.7 - 0.0 - - - - - - -
18/03:00am 11.5 NE 12 17 1013.0 - 0.0 - - - - - - -
18/02:30am 11.2 NE 13 16 1013.5 - 0.0 - - - - - - -
18/02:00am 10.4 ENE 11 14 1014.0 - 0.0 - - - - - - -
18/01:30am 10.7 ENE 10 13 1014.6 - 0.0 - - - - - - -
18/01:00am 10.9 ENE 11 14 1015.1 - 0.0 - - - - - - -
18/12:30am 10.8 ENE 12 16 1015.5 - 0.0 - - - - - - -
18/12:00am 10.7 ENE 12 16 1016.0 - 0.0 - - - - - - -
 
Date/Time
EST
Temp
°C
Wind Pressure Rain since
9am
mm
Weather Cloud Vis
km
Sea
Height
m
Swell
Dir  Spd
kts
Gust
kts
hPa Trend Height
m
Period
s
Dir
17/11:30pm 10.4 E 11 15 1016.5 - 0.0 - - - - - - -
17/11:00pm 10.5 ENE 12 16 1016.7 - 0.0 - - - - - - -
17/10:30pm 10.3 ENE 13 17 1017.0 - 0.0 - - - - - - -
17/10:00pm 10.3 NE 13 17 1017.3 - 0.0 - - - - - - -
17/09:30pm 9.8 ENE 12 15 1017.5 - 0.0 - - - - - - -
17/09:00pm 9.5 ENE 11 14 1017.8 - 0.0 - - - - - - -
17/08:30pm 9.2 ENE 9 12 1018.3 - 0.0 - - - - - - -
17/08:00pm 9.8 NE 10 13 1018.7 - 0.0 - - - - - - -
17/07:30pm 9.8 NE 10 14 1018.9 - 0.0 - - - - - - -
17/07:00pm 9.8 NE 10 12 1018.8 - 0.0 - - - - - - -
17/06:30pm 9.9 NNE 10 13 1018.9 - 0.0 - - - - - - -
17/06:00pm 10.2 NNE 12 15 1019.0 - 0.0 - - - - - - -
17/05:30pm 10.8 N 12 16 1019.2 - 0.0 - - - - - - -
17/05:00pm 11.5 NNE 13 18 1019.0 - 0.0 - - - - - - -
17/04:30pm 11.1 NNE 12 16 1019.4 - 0.0 - - - - - - -
17/04:00pm 12.3 N 13 17 1019.7 - 0.0 - - - - - - -
17/03:30pm 12.2 N 14 18 1019.7 - 0.0 - - - - - - -
17/03:00pm 13.0 N 12 16 1020.0 - 0.0 - - - - - - -
17/02:30pm 12.4 N 11 16 1020.6 - 0.0 - - - - - - -
17/02:00pm 12.9 N 12 17 1020.9 - 0.0 - - - - - - -
17/01:30pm 12.7 NNW 13 17 1021.4 - 0.0 - - - - - - -
17/01:00pm 12.6 NNW 12 16 1021.9 - 0.0 - - - - - - -
17/12:30pm 12.8 NNW 10 15 1022.6 - 0.0 - - - - - - -
17/12:00pm 12.3 NNW 12 17 1023.0 - 0.0 - - - - - - -
17/11:30am 12.4 N 10 14 1023.2 - 0.0 - - - - - - -
17/11:00am 11.5 NNE 5 7 1023.7 - 0.0 - - - - - - -
17/10:30am 11.0 NNE 4 6 1024.0 - 0.0 - - - - - - -
17/10:00am 10.3 NE 3 4 1024.2 - 0.0 - - - - - - -
17/09:30am 9.3 ENE 4 6 1024.2 - 0.0 - - - - - - -
17/09:00am 7.9 E 2 5 1024.5 - 3.6 - - - - - - -
17/08:30am 6.4 CALM 0 3 1024.6 - 3.6 - - - - - - -
17/08:00am 4.7 S 3 4 1024.8 - 3.6 - - - - - - -
17/07:30am 3.3 S 1 3 1024.5 - 3.6 - - - - - - -
17/07:00am 2.2 S 3 3 1024.5 - 3.6 - - - - - - -
17/06:30am 1.3 S 4 4 1024.5 - 3.6 - - - - - - -
17/06:00am 1.5 S 4 4 1024.1 - 3.6 - - - - - - -
17/05:30am 1.7 S 1 5 1024.1 - 3.6 - - - - - - -
17/05:00am 1.4 S 3 4 1024.1 - 3.6 - - - - - - -
17/04:30am 1.1 S 4 5 1024.0 - 3.6 - - - - - - -
17/04:00am 1.2 S 4 5 1023.6 - 3.6 - - - - - - -
17/03:30am 1.5 CALM 0 3 1023.8 - 3.6 - - - - - - -
17/03:00am 1.3 S 3 5 1023.7 - 3.6 - - - - - - -
17/02:30am 1.4 S 5 6 1023.9 - 3.6 - - - - - - -
17/02:00am 1.6 S 3 4 1024.1 - 3.6 - - - - - - -
17/01:30am 1.7 S 3 4 1024.6 - 3.6 - - - - - - -

Other Formats:

Comma delimited format used in spreadsheet applications
http://www.bom.gov.au/fwo/IDV60701/IDV60701.94953.axf

JavaScript Object Notation format (JSON) in row-major order
http://www.bom.gov.au/fwo/IDV60701/IDV60701.94953.json